createdAt,value
2017-02-10T00:00:40.713Z,1.26
2017-02-10T00:01:22.370Z,1.32
2017-02-10T00:03:22.395Z,1.18
2017-02-10T00:04:03.947Z,1.24
2017-02-10T00:04:45.494Z,1.2
2017-02-10T00:06:24.537Z,1.23
2017-02-10T00:07:06.174Z,1.22
2017-02-10T00:07:47.858Z,1.24
2017-02-10T00:08:29.296Z,1.34
2017-02-10T00:09:10.968Z,1.26
2017-02-10T00:11:00.243Z,1.22
2017-02-10T00:13:00.172Z,1.2
2017-02-10T00:13:41.775Z,1.22
2017-02-10T00:14:23.501Z,1.14
2017-02-10T00:15:05.077Z,1.23
2017-02-10T00:15:46.579Z,1.15
2017-02-10T00:17:41.170Z,1.11
2017-02-10T00:18:22.623Z,1.2
2017-02-10T00:19:04.308Z,1.22
2017-02-10T00:19:45.867Z,1.3
2017-02-10T00:20:27.304Z,1.12
2017-02-10T00:21:08.762Z,1.16
2017-02-10T00:21:50.310Z,1.2
2017-02-10T00:24:05.739Z,1.23
2017-02-10T00:24:47.266Z,1.26
2017-02-10T00:25:28.840Z,1.26
2017-02-10T00:26:10.317Z,1.23
2017-02-10T00:26:52.057Z,1.18
2017-02-10T00:29:07.409Z,1.11
2017-02-10T00:29:49.087Z,1.12
2017-02-10T00:30:30.834Z,1.12
2017-02-10T00:31:12.514Z,1.18
2017-02-10T00:33:27.696Z,1.22
2017-02-10T00:34:09.222Z,1.11
2017-02-10T00:34:50.714Z,1.29
2017-02-10T00:35:32.362Z,1.2
2017-02-10T00:36:13.792Z,1.26
2017-02-10T00:36:55.408Z,1.11
2017-02-10T00:37:37.061Z,1.23
2017-02-10T00:38:18.731Z,1.22
2017-02-10T00:40:13.405Z,1.26
2017-02-10T00:42:02.738Z,1.15
2017-02-10T00:42:44.247Z,1.09
2017-02-10T00:43:26.081Z,1.14
2017-02-10T00:44:07.769Z,1.2
2017-02-10T00:44:49.567Z,1.16
2017-02-10T00:45:31.213Z,1.09
2017-02-10T00:46:12.484Z,1.06
2017-02-10T00:46:54.122Z,1.15
2017-02-10T00:48:43.395Z,1.15
2017-02-10T00:49:24.925Z,1.15
2017-02-10T00:50:06.652Z,1.11
2017-02-10T00:50:48.180Z,1.14
2017-02-10T00:51:29.808Z,1.11
2017-02-10T00:52:11.492Z,1.15
2017-02-10T00:53:50.446Z,1.15
2017-02-10T00:55:50.405Z,1.15
2017-02-10T00:56:31.860Z,1.2
2017-02-10T00:57:13.515Z,1.22
2017-02-10T00:58:52.444Z,1.18
2017-02-10T00:59:34.128Z,1.2
2017-02-10T01:00:15.822Z,1.23
2017-02-10T01:00:57.442Z,1.18
2017-02-10T01:01:38.521Z,1.24
2017-02-10T01:02:20.378Z,1.16
2017-02-10T01:03:01.992Z,1.18
2017-02-10T01:03:43.783Z,1.16
2017-02-10T01:04:25.398Z,1.2
2017-02-10T01:06:40.860Z,1.26
2017-02-10T01:07:22.411Z,1.18
2017-02-10T01:08:04.166Z,1.23
2017-02-10T01:08:45.508Z,1.2
2017-02-10T01:09:27.110Z,1.23
2017-02-10T01:10:08.805Z,1.27
2017-02-10T01:11:47.797Z,1.16
2017-02-10T01:12:29.404Z,1.15
2017-02-10T01:13:11.037Z,1.15
2017-02-10T01:13:52.697Z,1.18
2017-02-10T01:14:34.401Z,1.16
2017-02-10T01:15:16.098Z,1.18
2017-02-10T01:15:57.808Z,1.24
2017-02-10T01:17:47.055Z,1.18
2017-02-10T01:18:28.733Z,1.18
2017-02-10T01:19:10.477Z,1.22
2017-02-10T01:21:05.190Z,1.18
2017-02-10T01:21:46.947Z,1.16
2017-02-10T01:22:28.687Z,1.14
2017-02-10T01:23:10.408Z,1.14
2017-02-10T01:25:05.172Z,1.22
2017-02-10T01:25:46.858Z,1.22
2017-02-10T01:26:28.589Z,1.16
2017-02-10T01:27:10.298Z,1.2
2017-02-10T01:27:51.963Z,1.18
2017-02-10T01:30:07.302Z,1.22
2017-02-10T01:32:22.570Z,1.23
2017-02-10T01:33:04.278Z,1.14
2017-02-10T01:33:46.035Z,1.23
2017-02-10T01:34:27.825Z,1.29
2017-02-10T01:36:43.188Z,1.16
2017-02-10T01:37:24.513Z,1.23
2017-02-10T01:39:19.065Z,1.18
2017-02-10T01:41:13.801Z,1.16
2017-02-10T01:41:55.556Z,1.15
2017-02-10T01:43:55.583Z,1.29
2017-02-10T01:44:37.322Z,1.26
2017-02-10T01:45:19.029Z,1.15
2017-02-10T01:46:00.552Z,1.22
2017-02-10T01:46:42.084Z,1.22
2017-02-10T01:47:23.786Z,1.29
2017-02-10T01:49:12.997Z,1.15
2017-02-10T01:51:02.416Z,1.14
2017-02-10T01:51:44.088Z,1.12
2017-02-10T01:52:25.631Z,1.18
2017-02-10T01:53:07.282Z,1.18
2017-02-10T01:53:48.871Z,1.16
2017-02-10T01:54:30.584Z,1.23
2017-02-10T01:56:46.000Z,1.2
2017-02-10T01:57:27.687Z,1.18
2017-02-10T01:58:09.296Z,1.12
2017-02-10T01:58:50.997Z,1.15
2017-02-10T02:00:29.944Z,1.16
2017-02-10T02:01:11.659Z,1.22
2017-02-10T02:03:00.962Z,1.22
2017-02-10T02:03:41.863Z,1.08
2017-02-10T02:04:22.393Z,1.12
2017-02-10T02:05:02.928Z,1.09
2017-02-10T02:05:43.456Z,1.12
2017-02-10T02:06:23.990Z,1.11
2017-02-10T02:07:04.515Z,1.14
2017-02-10T02:07:45.043Z,1.22
2017-02-10T02:08:25.577Z,1.16
2017-02-10T02:09:06.100Z,1.15
2017-02-10T02:09:46.627Z,1.15
2017-02-10T02:10:27.161Z,1.14
2017-02-10T02:11:07.694Z,1.15
2017-02-10T02:11:48.226Z,1.15
2017-02-10T02:12:28.755Z,1.15
2017-02-10T02:13:09.283Z,1.12
2017-02-10T02:13:49.817Z,1.09
2017-02-10T02:14:30.346Z,1.14
2017-02-10T02:15:10.882Z,1.11
2017-02-10T02:15:51.403Z,1.16
2017-02-10T02:16:31.935Z,1.15
2017-02-10T02:17:12.462Z,1.16
2017-02-10T02:17:52.999Z,1.11
2017-02-10T02:18:33.532Z,1.08
2017-02-10T02:19:14.064Z,1.14
2017-02-10T02:19:54.595Z,1.09
2017-02-10T02:20:35.128Z,1.15
2017-02-10T02:21:15.660Z,1.11
2017-02-10T02:21:56.193Z,1.16
2017-02-10T02:22:36.726Z,1.08
2017-02-10T02:23:17.256Z,1.14
2017-02-10T02:23:57.781Z,1.08
2017-02-10T02:24:38.335Z,1.09
2017-02-10T02:25:18.874Z,1.11
2017-02-10T02:25:59.407Z,1.09
2017-02-10T02:26:39.939Z,1.09
2017-02-10T02:27:20.470Z,1.09
2017-02-10T02:28:01.000Z,1.15
2017-02-10T02:28:41.534Z,1.08
2017-02-10T02:29:22.062Z,1.09
2017-02-10T02:30:02.581Z,1.11
2017-02-10T02:30:43.114Z,1.15
2017-02-10T02:31:23.643Z,1.02
2017-02-10T02:32:04.181Z,1.09
2017-02-10T02:32:44.709Z,1.14
2017-02-10T02:33:25.243Z,1.09
2017-02-10T02:34:05.774Z,1.15
2017-02-10T02:34:46.296Z,1.15
2017-02-10T02:35:26.874Z,1.12
2017-02-10T02:36:07.409Z,1.15
2017-02-10T02:36:47.937Z,1.12
2017-02-10T02:37:28.466Z,1.14
2017-02-10T02:38:09.001Z,1.12
2017-02-10T02:38:49.528Z,1.14
2017-02-10T02:39:30.057Z,1.16
2017-02-10T02:40:10.592Z,1.16
2017-02-10T02:40:51.113Z,1.04
2017-02-10T02:41:31.645Z,1.14
2017-02-10T02:42:12.172Z,1.12
2017-02-10T02:42:52.702Z,1.18
2017-02-10T02:43:33.238Z,1.14
2017-02-10T02:44:13.768Z,1.14
2017-02-10T02:44:54.302Z,1.12
2017-02-10T02:45:34.824Z,1.16
2017-02-10T02:46:15.353Z,1.06
2017-02-10T02:46:55.889Z,1.05
2017-02-10T02:47:36.419Z,1.11
2017-02-10T02:48:16.951Z,1.05
2017-02-10T02:48:57.474Z,1.06
2017-02-10T02:49:38.006Z,1.08
2017-02-10T02:50:18.539Z,1.05
2017-02-10T02:50:59.070Z,1.02
2017-02-10T02:51:39.600Z,1.02
2017-02-10T02:52:20.128Z,1.08
2017-02-10T02:53:00.657Z,1.08
2017-02-10T02:53:41.192Z,1.02
2017-02-10T02:54:21.722Z,1.06
2017-02-10T02:55:02.249Z,1.08
2017-02-10T02:55:42.775Z,1.04
2017-02-10T02:56:23.317Z,1.11
2017-02-10T02:57:03.846Z,1.08
2017-02-10T02:57:44.378Z,1.08
2017-02-10T02:58:24.910Z,0.98
2017-02-10T02:59:05.435Z,1
2017-02-10T02:59:45.972Z,0.97
2017-02-10T03:00:26.496Z,1.09
2017-02-10T03:01:07.026Z,1.08
2017-02-10T03:01:47.553Z,0.94
2017-02-10T03:02:28.077Z,1.06
2017-02-10T03:03:08.603Z,1.08
2017-02-10T03:03:49.133Z,1.06
2017-02-10T03:04:29.671Z,1.02
2017-02-10T03:05:10.199Z,1.02
2017-02-10T03:05:50.730Z,1.05
2017-02-10T03:06:31.254Z,1.12
2017-02-10T03:07:11.783Z,1.09
2017-02-10T03:07:52.311Z,0.97
2017-02-10T03:08:32.838Z,1.04
2017-02-10T03:09:13.374Z,1.06
2017-02-10T03:09:53.902Z,1.04
2017-02-10T03:10:34.432Z,1.09
2017-02-10T03:11:14.962Z,1.06
2017-02-10T03:11:55.489Z,1.09
2017-02-10T03:12:36.025Z,1.08
2017-02-10T03:13:16.554Z,1.12
2017-02-10T03:13:57.084Z,1.09
2017-02-10T03:14:37.611Z,1.15
2017-02-10T03:15:18.137Z,1.16
2017-02-10T03:15:58.666Z,1.06
2017-02-10T03:16:39.205Z,1.08
2017-02-10T03:17:19.735Z,1.09
2017-02-10T03:18:00.263Z,1.11
2017-02-10T03:18:40.790Z,1.12
2017-02-10T03:19:21.319Z,1.15
2017-02-10T03:20:01.865Z,1.09
2017-02-10T03:20:42.386Z,1.06
2017-02-10T03:21:22.915Z,1.09
2017-02-10T03:22:03.442Z,1.08
2017-02-10T03:22:43.970Z,1.16
2017-02-10T03:23:24.509Z,1.23
2017-02-10T03:24:05.035Z,1.18
2017-02-10T03:24:45.566Z,1.24
2017-02-10T03:25:26.093Z,1.22
2017-02-10T03:26:06.622Z,1.23
2017-02-10T03:26:47.160Z,1.2
2017-02-10T03:27:27.682Z,1.16
2017-02-10T03:28:08.205Z,1.15
2017-02-10T03:28:48.737Z,1.27
2017-02-10T03:29:29.263Z,1.16
2017-02-10T03:30:09.794Z,1.27
2017-02-10T03:30:50.325Z,1.22
2017-02-10T03:31:30.851Z,1.18
2017-02-10T03:32:11.378Z,1.27
2017-02-10T03:32:51.913Z,1.26
2017-02-10T03:33:32.444Z,1.27
2017-02-10T03:34:12.978Z,1.12
2017-02-10T03:34:53.508Z,1.33
2017-02-10T03:35:34.040Z,1.14
2017-02-10T03:36:14.567Z,1.14
2017-02-10T03:36:55.096Z,1.11
2017-02-10T03:37:35.627Z,1.24
2017-02-10T03:38:16.153Z,1.16
2017-02-10T03:38:56.680Z,1.29
2017-02-10T03:39:37.223Z,1.29
2017-02-10T03:40:17.751Z,1.29
2017-02-10T03:40:58.281Z,1.2
2017-02-10T03:41:38.813Z,1.23
2017-02-10T03:42:19.351Z,1.23
2017-02-10T03:42:59.874Z,1.24
2017-02-10T03:43:40.391Z,1.22
2017-02-10T03:44:20.923Z,1.22
2017-02-10T03:45:01.456Z,1.18
2017-02-10T03:45:41.983Z,1.23
2017-02-10T03:46:22.521Z,1.26
2017-02-10T03:47:03.076Z,1.24
2017-02-10T03:47:43.608Z,1.29
2017-02-10T03:48:26.674Z,1.32
2017-02-10T03:49:07.204Z,1.3
2017-02-10T03:49:47.778Z,1.3
2017-02-10T03:50:28.307Z,1.32
2017-02-10T03:51:08.826Z,1.3
2017-02-10T03:51:49.359Z,1.34
2017-02-10T03:52:29.893Z,1.26
2017-02-10T03:53:10.430Z,1.36
2017-02-10T03:53:50.945Z,1.29
2017-02-10T03:54:31.474Z,1.29
2017-02-10T03:55:12.001Z,1.3
2017-02-10T03:55:52.531Z,1.32
2017-02-10T03:56:33.061Z,1.32
2017-02-10T03:57:13.588Z,1.23
2017-02-10T03:57:54.118Z,1.37
2017-02-10T03:58:34.650Z,1.34
2017-02-10T03:59:15.183Z,1.29
2017-02-10T03:59:55.717Z,1.29
2017-02-10T04:00:36.245Z,1.24
2017-02-10T04:01:16.773Z,1.27
2017-02-10T04:01:57.297Z,1.29
2017-02-10T04:02:37.828Z,1.27
2017-02-10T04:03:18.357Z,1.29
2017-02-10T04:03:59.064Z,1.27
2017-02-10T04:04:39.589Z,1.24
2017-02-10T04:05:20.122Z,1.34
2017-02-10T04:06:00.648Z,1.27
2017-02-10T04:06:41.179Z,1.2
2017-02-10T04:07:21.709Z,1.27
2017-02-10T04:08:02.241Z,1.29
2017-02-10T04:08:42.811Z,1.3
2017-02-10T04:09:23.299Z,1.2
2017-02-10T04:10:03.830Z,1.16
2017-02-10T04:10:44.368Z,1.15
2017-02-10T04:11:24.895Z,1.11
2017-02-10T04:12:05.426Z,1.26
2017-02-10T04:12:45.960Z,1.15
2017-02-10T04:13:26.493Z,1.22
2017-02-10T04:14:07.027Z,1.22
2017-02-10T04:14:47.560Z,1.22
2017-02-10T04:15:28.087Z,1.16
2017-02-10T04:16:08.615Z,1.22
2017-02-10T04:16:49.154Z,1.29
2017-02-10T04:17:29.683Z,1.18
2017-02-10T04:18:10.212Z,1.23
2017-02-10T04:18:50.742Z,1.18
2017-02-10T04:19:31.266Z,1.24
2017-02-10T04:20:11.795Z,1.27
2017-02-10T04:20:52.326Z,1.3
2017-02-10T04:21:32.849Z,1.23
2017-02-10T04:22:13.386Z,1.27
2017-02-10T04:22:53.911Z,1.3
2017-02-10T04:23:34.439Z,1.26
2017-02-10T04:24:14.972Z,1.33
2017-02-10T04:24:55.500Z,1.23
2017-02-10T04:25:36.031Z,1.3
2017-02-10T04:26:16.560Z,1.3
2017-02-10T04:26:57.086Z,1.2
2017-02-10T04:27:37.621Z,1.26
2017-02-10T04:28:18.171Z,1.26
2017-02-10T04:28:58.683Z,1.3
2017-02-10T04:29:39.215Z,1.29
2017-02-10T04:30:19.744Z,1.27
2017-02-10T04:31:00.272Z,1.29
2017-02-10T04:31:40.825Z,1.24
2017-02-10T04:32:21.354Z,1.29
2017-02-10T04:33:01.886Z,1.3
2017-02-10T04:33:42.419Z,1.3
2017-02-10T04:34:22.951Z,1.3
2017-02-10T04:35:03.481Z,1.29
2017-02-10T04:35:44.009Z,1.24
2017-02-10T04:36:24.538Z,1.29
2017-02-10T04:37:05.065Z,1.24
2017-02-10T04:37:45.597Z,1.23
2017-02-10T04:38:26.133Z,1.26
2017-02-10T04:39:06.672Z,1.27
2017-02-10T04:39:47.205Z,1.3
2017-02-10T04:40:27.718Z,1.3
2017-02-10T04:41:08.249Z,1.23
2017-02-10T04:41:48.779Z,1.3
2017-02-10T04:42:29.304Z,1.16
2017-02-10T04:43:09.832Z,1.3
2017-02-10T04:43:50.362Z,1.29
2017-02-10T04:44:30.885Z,1.24
2017-02-10T04:45:11.416Z,1.26
2017-02-10T04:45:51.946Z,1.27
2017-02-10T04:46:32.474Z,1.26
2017-02-10T04:47:14.511Z,1.23
2017-02-10T04:47:55.036Z,1.24
2017-02-10T04:48:35.562Z,1.26
2017-02-10T04:49:16.135Z,1.33
2017-02-10T04:49:56.668Z,1.23
2017-02-10T04:50:37.196Z,1.29
2017-02-10T04:51:17.720Z,1.29
2017-02-10T04:51:58.254Z,1.26
2017-02-10T04:52:38.790Z,1.23
2017-02-10T04:53:19.319Z,1.26
2017-02-10T04:53:59.852Z,1.3
2017-02-10T04:54:40.394Z,1.3
2017-02-10T04:55:20.928Z,1.32
2017-02-10T04:56:01.448Z,1.32
2017-02-10T04:56:41.968Z,1.23
2017-02-10T04:57:22.500Z,1.22
2017-02-10T04:58:03.030Z,1.23
2017-02-10T04:58:43.559Z,1.22
2017-02-10T04:59:24.321Z,1.22
2017-02-10T05:00:04.864Z,1.22
2017-02-10T05:00:45.394Z,1.24
2017-02-10T05:01:25.920Z,1.24
2017-02-10T05:02:06.453Z,1.2
2017-02-10T05:02:46.984Z,1.2
2017-02-10T05:03:27.514Z,1.18
2017-02-10T05:04:08.054Z,1.23
2017-02-10T05:04:48.567Z,1.23
2017-02-10T05:05:29.101Z,1.24
2017-02-10T05:06:09.631Z,1.3
2017-02-10T05:06:50.161Z,1.24
2017-02-10T05:07:30.686Z,1.18
2017-02-10T05:08:11.238Z,1.23
2017-02-10T05:08:51.783Z,1.18
2017-02-10T05:09:32.333Z,1.3
2017-02-10T05:10:12.905Z,1.26
2017-02-10T05:10:53.430Z,1.16
2017-02-10T05:11:33.960Z,1.18
2017-02-10T05:12:14.543Z,1.16
2017-02-10T05:12:55.073Z,1.16
2017-02-10T05:13:36.110Z,1.18
2017-02-10T05:14:16.163Z,1.18
2017-02-10T05:14:56.702Z,1.18
2017-02-10T05:15:37.226Z,1.22
2017-02-10T05:16:17.756Z,1.27
2017-02-10T05:16:58.290Z,1.27
2017-02-10T05:17:38.821Z,1.16
2017-02-10T05:18:19.335Z,1.22
2017-02-10T05:18:59.868Z,1.24
2017-02-10T05:19:40.397Z,1.29
2017-02-10T05:20:20.937Z,1.11
2017-02-10T05:21:01.466Z,1.15
2017-02-10T05:21:42.008Z,1.27
2017-02-10T05:22:22.546Z,1.27
2017-02-10T05:23:03.083Z,1.2
2017-02-10T05:23:43.617Z,1.3
2017-02-10T05:24:24.155Z,1.22
2017-02-10T05:25:04.993Z,1.26
2017-02-10T05:25:45.526Z,1.2
2017-02-10T05:26:26.055Z,1.26
2017-02-10T05:27:06.582Z,1.09
2017-02-10T05:27:47.114Z,1.2
2017-02-10T05:28:27.648Z,1.14
2017-02-10T05:29:08.172Z,1.15
2017-02-10T05:29:48.710Z,1.3
2017-02-10T05:30:29.238Z,1.15
2017-02-10T05:31:09.772Z,1.27
2017-02-10T05:31:50.306Z,1.22
2017-02-10T05:32:30.833Z,1.18
2017-02-10T05:33:11.352Z,1.18
2017-02-10T05:33:51.875Z,1.22
2017-02-10T05:34:32.413Z,1.22
2017-02-10T05:35:12.952Z,1.22
2017-02-10T05:35:53.485Z,1.22
2017-02-10T05:36:34.023Z,1.22
2017-02-10T05:37:14.547Z,1.24
2017-02-10T05:37:55.099Z,1.2
2017-02-10T05:38:35.605Z,1.16
2017-02-10T05:39:16.135Z,1.14
2017-02-10T05:41:05.081Z,1.11
2017-02-10T05:41:45.605Z,1.23
2017-02-10T05:42:26.140Z,1.16
2017-02-10T05:43:06.671Z,1.16
2017-02-10T05:43:47.196Z,1.27
2017-02-10T05:44:27.721Z,1.29
2017-02-10T05:45:08.244Z,1.27
2017-02-10T05:45:48.770Z,1.12
2017-02-10T05:46:29.340Z,1.16
2017-02-10T05:47:09.859Z,1.15
2017-02-10T05:47:50.384Z,1.3
2017-02-10T05:48:30.964Z,1.2
2017-02-10T05:49:11.493Z,1.24
2017-02-10T05:49:52.028Z,1.16
2017-02-10T05:50:32.553Z,1.2
2017-02-10T05:51:13.084Z,1.11
2017-02-10T05:51:53.621Z,1.2
2017-02-10T05:52:34.148Z,1.15
2017-02-10T05:53:14.676Z,1.15
2017-02-10T05:53:55.208Z,1.11
2017-02-10T05:54:35.726Z,1.16
2017-02-10T05:55:16.250Z,1.11
2017-02-10T05:55:56.776Z,1.15
2017-02-10T05:56:37.305Z,1.14
2017-02-10T05:57:17.833Z,1.15
2017-02-10T05:57:58.370Z,1.14
2017-02-10T05:58:38.894Z,1.15
2017-02-10T05:59:19.416Z,1.14
2017-02-10T05:59:59.933Z,1.12
2017-02-10T06:00:40.472Z,1.12
2017-02-10T06:01:21.003Z,1.02
2017-02-10T06:02:01.529Z,1.11
2017-02-10T06:02:42.070Z,1.09
2017-02-10T06:03:22.561Z,1.14
2017-02-10T06:04:03.097Z,1.14
2017-02-10T06:04:43.618Z,1.14
2017-02-10T06:05:24.147Z,1.11
2017-02-10T06:06:04.702Z,1.09
2017-02-10T06:06:45.230Z,1.05
2017-02-10T06:07:25.759Z,1.12
2017-02-10T06:08:06.287Z,1.15
2017-02-10T06:08:46.805Z,1.14
2017-02-10T06:09:27.333Z,1.16
2017-02-10T06:10:07.850Z,1.2
2017-02-10T06:10:48.381Z,1.15
2017-02-10T06:11:28.911Z,1.18
2017-02-10T06:12:09.439Z,1.27
2017-02-10T06:12:49.979Z,1.12
2017-02-10T06:13:30.509Z,1.15
2017-02-10T06:14:11.031Z,1.15
2017-02-10T06:14:51.559Z,1.15
2017-02-10T06:15:32.089Z,1.08
2017-02-10T06:16:12.618Z,1.18
2017-02-10T06:16:53.157Z,1.09
2017-02-10T06:17:33.687Z,1.14
2017-02-10T06:18:14.213Z,1.18
2017-02-10T06:18:54.737Z,1.22
2017-02-10T06:19:35.260Z,1.18
2017-02-10T06:20:15.779Z,1.16
2017-02-10T06:20:56.315Z,1.23
2017-02-10T06:21:36.833Z,1.23
2017-02-10T06:22:17.364Z,1.26
2017-02-10T06:22:57.881Z,1.18
2017-02-10T06:23:38.405Z,1.15
2017-02-10T06:24:18.931Z,1.18
2017-02-10T06:24:59.464Z,1.15
2017-02-10T06:25:39.995Z,1.2
2017-02-10T06:26:20.520Z,1.22
2017-02-10T06:27:01.044Z,1.23
2017-02-10T06:27:41.565Z,1.15
2017-02-10T06:28:22.095Z,1.22
2017-02-10T06:29:02.619Z,1.15
2017-02-10T06:29:43.143Z,1.2
2017-02-10T06:30:23.676Z,1.2
2017-02-10T06:31:04.213Z,1.18
2017-02-10T06:31:44.734Z,1.14
2017-02-10T06:32:25.261Z,1.18
2017-02-10T06:33:05.813Z,1.11
2017-02-10T06:33:46.336Z,1.18
2017-02-10T06:34:26.858Z,1.32
2017-02-10T06:35:07.382Z,1.27
2017-02-10T06:35:47.910Z,1.24
2017-02-10T06:36:28.444Z,1.26
2017-02-10T06:37:08.976Z,1.18
2017-02-10T06:37:49.508Z,1.26
2017-02-10T06:38:30.031Z,1.18
2017-02-10T06:39:10.563Z,1.18
2017-02-10T06:39:51.095Z,1.18
2017-02-10T06:40:31.627Z,1.24
2017-02-10T06:41:12.153Z,1.26
2017-02-10T06:41:52.679Z,1.18
2017-02-10T06:42:33.214Z,1.23
2017-02-10T06:43:13.743Z,1.16
2017-02-10T06:43:54.274Z,1.34
2017-02-10T06:44:34.794Z,1.23
2017-02-10T06:45:15.338Z,1.27
2017-02-10T06:45:55.873Z,1.32
2017-02-10T06:46:36.403Z,1.22
2017-02-10T06:47:16.936Z,1.16
2017-02-10T06:47:57.539Z,1.22
2017-02-10T06:48:38.069Z,1.3
2017-02-10T06:49:18.598Z,1.3
2017-02-10T06:49:59.191Z,1.2
2017-02-10T06:50:39.722Z,1.26
2017-02-10T06:51:20.252Z,1.27
2017-02-10T06:52:00.782Z,1.27
2017-02-10T06:52:41.317Z,1.34
2017-02-10T06:53:21.853Z,1.26
2017-02-10T06:54:02.396Z,1.26
2017-02-10T06:54:42.937Z,1.26
2017-02-10T06:55:23.479Z,1.27
2017-02-10T06:56:04.000Z,1.26
2017-02-10T06:56:44.526Z,1.24
2017-02-10T06:57:25.055Z,1.29
2017-02-10T06:58:05.594Z,1.22
2017-02-10T06:58:46.128Z,1.26
2017-02-10T06:59:26.644Z,1.23
2017-02-10T07:00:07.170Z,1.26
2017-02-10T07:00:47.698Z,1.24
2017-02-10T07:01:28.247Z,1.22
2017-02-10T07:02:08.753Z,1.22
2017-02-10T07:02:49.288Z,1.22
2017-02-10T07:03:29.821Z,1.22
2017-02-10T07:04:10.337Z,1.16
2017-02-10T07:04:50.873Z,1.22
2017-02-10T07:05:31.397Z,1.3
2017-02-10T07:06:11.931Z,1.26
2017-02-10T07:06:52.467Z,1.18
2017-02-10T07:07:33.092Z,1.23
2017-02-10T07:08:13.619Z,1.23
2017-02-10T07:08:54.149Z,1.3
2017-02-10T07:09:34.679Z,1.24
2017-02-10T07:10:15.205Z,1.16
2017-02-10T07:10:55.745Z,1.23
2017-02-10T07:11:36.275Z,1.2
2017-02-10T07:12:16.806Z,1.27
2017-02-10T07:12:57.342Z,1.14
2017-02-10T07:13:37.859Z,1.33
2017-02-10T07:14:18.398Z,1.33
2017-02-10T07:14:58.938Z,1.16
2017-02-10T07:15:39.470Z,1.26
2017-02-10T07:16:20.006Z,1.2
2017-02-10T07:17:00.538Z,1.22
2017-02-10T07:17:41.063Z,1.18
2017-02-10T07:18:21.596Z,1.27
2017-02-10T07:19:02.136Z,1.24
2017-02-10T07:19:42.649Z,1.23
2017-02-10T07:20:23.174Z,1.23
2017-02-10T07:21:03.698Z,1.26
2017-02-10T07:21:44.232Z,1.27
2017-02-10T07:22:24.770Z,1.24
2017-02-10T07:23:05.300Z,1.26
2017-02-10T07:23:45.820Z,1.23
2017-02-10T07:24:26.353Z,1.2
2017-02-10T07:25:06.879Z,1.27
2017-02-10T07:25:47.410Z,1.26
2017-02-10T07:26:27.930Z,1.27
2017-02-10T07:27:08.456Z,1.15
2017-02-10T07:27:48.983Z,1.27
2017-02-10T07:28:29.510Z,1.27
2017-02-10T07:29:10.035Z,1.14
2017-02-10T07:29:50.569Z,1.18
2017-02-10T07:30:31.081Z,1.26
2017-02-10T07:31:11.612Z,1.15
2017-02-10T07:31:52.146Z,1.26
2017-02-10T07:32:32.686Z,1.27
2017-02-10T07:33:13.203Z,1.24
2017-02-10T07:33:53.737Z,1.14
2017-02-10T07:34:34.276Z,1.11
2017-02-10T07:35:14.793Z,1.23
2017-02-10T07:35:55.321Z,1.2
2017-02-10T07:36:35.851Z,1.16
2017-02-10T07:37:16.384Z,1.22
2017-02-10T07:37:56.958Z,1.29
2017-02-10T07:38:37.481Z,1.18
2017-02-10T07:39:18.012Z,1.2
2017-02-10T07:39:58.541Z,1.22
2017-02-10T07:40:39.080Z,1.3
2017-02-10T07:41:19.604Z,1.24
2017-02-10T07:42:00.137Z,1.3
2017-02-10T07:42:40.684Z,1.29
2017-02-10T07:43:21.213Z,1.3
2017-02-10T07:44:01.748Z,1.3
2017-02-10T07:44:42.361Z,1.32
2017-02-10T07:46:22.153Z,1.26
2017-02-10T07:47:02.686Z,1.33
2017-02-10T07:47:43.199Z,1.32
2017-02-10T07:48:23.732Z,1.34
2017-02-10T07:49:04.246Z,1.36
2017-02-10T07:49:44.771Z,1.4
2017-02-10T07:50:25.299Z,1.37
2017-02-10T07:51:05.842Z,1.36
2017-02-10T07:51:46.355Z,1.45
2017-02-10T07:52:26.878Z,1.47
2017-02-10T07:53:07.403Z,1.32
2017-02-10T07:53:47.940Z,1.44
2017-02-10T07:54:28.471Z,1.4
2017-02-10T07:55:08.998Z,1.42
2017-02-10T07:55:49.609Z,1.36
2017-02-10T07:56:30.138Z,1.32
2017-02-10T07:57:10.667Z,1.47
2017-02-10T07:57:51.212Z,1.32
2017-02-10T07:58:31.742Z,1.44
2017-02-10T07:59:12.268Z,1.41
2017-02-10T07:59:52.811Z,1.45
2017-02-10T08:00:33.333Z,1.5
2017-02-10T08:01:13.863Z,1.5
2017-02-10T08:01:54.396Z,1.5
2017-02-10T08:02:34.935Z,1.48
2017-02-10T08:03:15.463Z,1.48
2017-02-10T08:03:55.997Z,1.45
2017-02-10T08:04:36.537Z,1.48
2017-02-10T08:05:17.072Z,1.51
2017-02-10T08:05:57.598Z,1.45
2017-02-10T08:06:38.125Z,1.51
2017-02-10T08:07:18.653Z,1.45
2017-02-10T08:07:59.184Z,1.52
2017-02-10T08:08:39.717Z,1.47
2017-02-10T08:09:20.235Z,1.51
2017-02-10T08:10:00.784Z,1.44
2017-02-10T08:10:41.281Z,1.41
2017-02-10T08:11:21.813Z,1.47
2017-02-10T08:12:02.336Z,1.55
2017-02-10T08:12:42.898Z,1.59
2017-02-10T08:13:23.429Z,1.59
2017-02-10T08:14:03.960Z,1.45
2017-02-10T08:14:44.495Z,1.59
2017-02-10T08:15:25.025Z,1.6
2017-02-10T08:16:05.556Z,1.59
2017-02-10T08:16:46.073Z,1.55
2017-02-10T08:17:26.595Z,1.59
2017-02-10T08:18:07.123Z,1.54
2017-02-10T08:18:47.637Z,1.48
2017-02-10T08:19:28.159Z,1.45
2017-02-10T08:20:08.685Z,1.51
2017-02-10T08:20:49.223Z,1.59
2017-02-10T08:21:29.754Z,1.58
2017-02-10T08:22:10.282Z,1.52
2017-02-10T08:22:50.796Z,1.59
2017-02-10T08:23:31.328Z,1.6
2017-02-10T08:24:11.857Z,1.58
2017-02-10T08:24:52.377Z,1.59
2017-02-10T08:25:32.924Z,1.58
2017-02-10T08:26:13.445Z,1.62
2017-02-10T08:26:53.969Z,1.59
2017-02-10T08:27:34.492Z,1.59
2017-02-10T08:28:15.023Z,1.54
2017-02-10T08:28:55.553Z,1.58
2017-02-10T08:29:36.123Z,1.6
2017-02-10T08:30:16.652Z,1.6
2017-02-10T08:30:57.187Z,1.7
2017-02-10T08:31:37.723Z,1.7
2017-02-10T08:32:18.327Z,1.68
2017-02-10T08:32:58.859Z,1.66
2017-02-10T08:33:39.390Z,1.77
2017-02-10T08:34:19.914Z,1.77
2017-02-10T08:35:00.462Z,1.72
2017-02-10T08:35:40.995Z,1.81
2017-02-10T08:36:21.534Z,1.79
2017-02-10T08:37:02.058Z,1.77
2017-02-10T08:37:42.689Z,1.79
2017-02-10T08:38:23.225Z,1.73
2017-02-10T08:39:03.758Z,1.79
2017-02-10T08:39:44.271Z,1.84
2017-02-10T08:40:24.812Z,1.79
2017-02-10T08:41:05.361Z,1.81
2017-02-10T08:41:45.859Z,1.76
2017-02-10T08:42:26.386Z,1.84
2017-02-10T08:43:06.946Z,1.76
2017-02-10T08:43:47.474Z,1.83
2017-02-10T08:44:28.016Z,1.81
2017-02-10T08:45:08.551Z,1.8
2017-02-10T08:45:49.080Z,1.8
2017-02-10T08:46:29.611Z,1.8
2017-02-10T08:47:10.141Z,1.8
2017-02-10T08:47:50.679Z,1.84
2017-02-10T08:48:31.209Z,1.81
2017-02-10T08:49:11.745Z,1.8
2017-02-10T08:49:52.283Z,1.81
2017-02-10T08:50:32.814Z,1.79
2017-02-10T08:51:13.343Z,1.81
2017-02-10T08:51:53.877Z,1.83
2017-02-10T08:52:34.406Z,1.83
2017-02-10T08:53:14.931Z,1.66
2017-02-10T08:53:55.464Z,1.7
2017-02-10T08:54:36.001Z,1.77
2017-02-10T08:55:16.526Z,1.73
2017-02-10T08:55:57.055Z,1.73
2017-02-10T08:56:37.593Z,1.83
2017-02-10T08:57:18.118Z,1.83
2017-02-10T08:57:58.650Z,1.79
2017-02-10T08:58:39.238Z,1.8
2017-02-10T08:59:19.762Z,1.8
2017-02-10T09:00:00.288Z,1.81
2017-02-10T09:00:40.862Z,1.84
2017-02-10T09:01:21.358Z,1.87
2017-02-10T09:02:01.874Z,1.86
2017-02-10T09:02:42.389Z,1.81
2017-02-10T09:03:22.919Z,1.84
2017-02-10T09:04:03.444Z,1.81
2017-02-10T09:04:43.974Z,1.86
2017-02-10T09:05:24.502Z,1.83
2017-02-10T09:06:05.028Z,1.87
2017-02-10T09:06:45.557Z,1.83
2017-02-10T09:07:26.086Z,1.81
2017-02-10T09:08:06.617Z,1.88
2017-02-10T09:08:47.193Z,1.84
2017-02-10T09:09:27.691Z,1.91
2017-02-10T09:10:08.233Z,1.86
2017-02-10T09:10:48.788Z,1.9
2017-02-10T09:11:29.312Z,1.88
2017-02-10T09:12:09.847Z,2.02
2017-02-10T09:12:50.377Z,1.95
2017-02-10T09:13:30.932Z,1.9
2017-02-10T09:14:11.467Z,1.86
2017-02-10T09:14:51.987Z,1.99
2017-02-10T09:15:32.514Z,1.93
2017-02-10T09:16:13.041Z,1.95
2017-02-10T09:16:53.559Z,1.88
2017-02-10T09:17:34.108Z,1.88
2017-02-10T09:18:14.636Z,1.9
2017-02-10T09:18:55.170Z,1.9
2017-02-10T09:19:35.703Z,1.9
2017-02-10T09:20:16.231Z,1.93
2017-02-10T09:20:56.764Z,1.99
2017-02-10T09:21:37.283Z,1.88
2017-02-10T09:22:17.843Z,1.93
2017-02-10T09:22:58.370Z,1.91
2017-02-10T09:23:38.902Z,2
2017-02-10T09:24:19.423Z,1.9
2017-02-10T09:24:59.953Z,1.95
2017-02-10T09:25:40.481Z,2.02
2017-02-10T09:26:21.015Z,2
2017-02-10T09:27:01.538Z,1.99
2017-02-10T09:27:42.066Z,2
2017-02-10T09:28:22.594Z,2
2017-02-10T09:29:03.123Z,1.99
2017-02-10T09:29:43.652Z,2.05
2017-02-10T09:30:24.178Z,1.98
2017-02-10T09:31:04.705Z,2.06
2017-02-10T09:31:45.249Z,2
2017-02-10T09:32:25.777Z,2.03
2017-02-10T09:33:06.310Z,2
2017-02-10T09:33:46.839Z,1.98
2017-02-10T09:34:27.370Z,2.05
2017-02-10T09:35:07.903Z,1.91
2017-02-10T09:35:48.433Z,2
2017-02-10T09:36:28.949Z,2.07
2017-02-10T09:37:09.510Z,2.02
2017-02-10T09:37:50.037Z,2.03
2017-02-10T09:38:30.563Z,2.07
2017-02-10T09:39:11.092Z,2.09
2017-02-10T09:39:51.631Z,2.05
2017-02-10T09:40:32.157Z,2.05
2017-02-10T09:41:12.696Z,1.9
2017-02-10T09:41:53.213Z,2.03
2017-02-10T09:42:33.750Z,2.05
2017-02-10T09:43:14.279Z,2.06
2017-02-10T09:43:54.810Z,2.02
2017-02-10T09:44:35.338Z,2.03